Time;durP1;ratioP1;P1;durP2;ratioP2;P2;SDS_P1;SDS_P2;PMS_P1;PMS_P2;Temp;Humidity;BMP_temperature;BMP_pressure;BME280_temperature;BME280_humidity;BME280_pressure;Samples;Min_cycle;Max_cycle;Signal;HPM_P1;HPM_P2
2021/07/09 00:04:08;;;;;;;0.10;0.10;;;;;;;16.07;93.57;102176.69;10469835;28;20017;-61
2021/07/09 00:09:10;;;;;;;0.13;0.13;;;;;;;16.06;94.56;102175.84;10475060;28;20472;-61
2021/07/09 00:14:12;;;;;;;0.08;0.08;;;;;;;16.09;94.70;102155.88;10465168;28;20017;-62
2021/07/09 00:19:12;;;;;;;0.10;0.10;;;;;;;16.11;95.12;102147.63;10469469;28;20472;-61
2021/07/09 00:24:13;;;;;;;0.10;0.10;;;;;;;16.11;95.26;102153.84;10472264;28;20055;-62
2021/07/09 00:29:13;;;;;;;0.10;0.10;;;;;;;16.15;94.97;102170.50;10474850;28;20051;-61
2021/07/09 00:34:15;;;;;;;0.10;0.10;;;;;;;16.16;94.61;102156.03;10459391;28;20494;-62
2021/07/09 00:39:15;;;;;;;0.20;0.20;;;;;;;16.12;95.00;102150.16;10487410;28;20028;-62
2021/07/09 00:44:16;;;;;;;0.10;0.10;;;;;;;16.06;95.40;102157.03;10472420;28;20414;-61
2021/07/09 00:49:16;;;;;;;0.10;0.10;;;;;;;16.04;94.80;102156.34;10470223;28;20271;-61
2021/07/09 00:54:16;;;;;;;0.10;0.10;;;;;;;16.04;94.82;102160.88;10493070;28;20384;-62
2021/07/09 00:59:22;;;;;;;0.10;0.10;;;;;;;16.07;94.70;102172.13;10474427;28;20044;-62
2021/07/09 01:04:23;;;;;;;0.10;0.10;;;;;;;16.09;94.34;102171.16;10485098;28;20243;-61
2021/07/09 01:09:23;;;;;;;0.10;0.10;;;;;;;16.10;93.94;102162.06;10495184;28;20391;-62
2021/07/09 01:14:23;;;;;;;0.10;0.10;;;;;;;16.14;94.52;102150.81;10478552;28;20021;-61
2021/07/09 01:19:26;;;;;;;0.10;0.10;;;;;;;16.19;93.94;102153.88;10478618;28;20075;-62
2021/07/09 01:24:26;;;;;;;0.00;0.00;;;;;;;16.19;93.69;102156.56;10480627;28;20032;-61
2021/07/09 01:29:27;;;;;;;0.10;0.10;;;;;;;16.19;93.57;102155.72;10483654;28;20055;-61
2021/07/09 01:34:27;;;;;;;0.10;0.10;;;;;;;16.18;93.67;102154.03;10482410;28;20107;-61
2021/07/09 01:39:27;;;;;;;0.10;0.10;;;;;;;16.17;93.26;102152.34;10472224;28;20024;-62
2021/07/09 01:44:28;;;;;;;0.10;0.10;;;;;;;16.17;93.21;102153.19;10472413;28;20498;-62
2021/07/09 01:49:28;;;;;;;0.10;0.10;;;;;;;16.19;93.61;102151.19;10484928;28;20051;-61
2021/07/09 01:54:29;;;;;;;0.10;0.10;;;;;;;16.20;93.40;102147.50;10480095;28;20029;-62
2021/07/09 01:59:29;;;;;;;0.10;0.10;;;;;;;16.18;93.24;102144.13;10474424;28;20743;-62
2021/07/09 02:04:30;;;;;;;0.10;0.10;;;;;;;16.17;93.07;102136.22;10465147;28;20020;-61
2021/07/09 02:09:30;;;;;;;0.10;0.10;;;;;;;16.14;92.84;102132.00;10479222;28;20040;-61
2021/07/09 02:14:30;;;;;;;0.10;0.10;;;;;;;16.12;92.49;102122.44;10462705;28;20017;-61
2021/07/09 02:19:31;;;;;;;0.10;0.10;;;;;;;16.11;92.95;102123.44;10471066;28;20024;-62
2021/07/09 02:24:32;;;;;;;0.10;0.10;;;;;;;16.09;92.53;102129.00;10450483;28;20058;-61
2021/07/09 02:29:34;;;;;;;0.10;0.10;;;;;;;16.07;92.26;102131.81;10482238;28;20048;-61
2021/07/09 02:34:36;;;;;;;0.00;0.00;;;;;;;16.04;92.10;102137.53;10471431;28;20426;-61
2021/07/09 02:39:37;;;;;;;0.10;0.10;;;;;;;16.00;92.32;102138.88;10479064;28;20020;-60
2021/07/09 02:44:38;;;;;;;0.10;0.10;;;;;;;15.93;92.38;102147.72;10486500;28;20024;-61
2021/07/09 02:49:39;;;;;;;0.10;0.10;;;;;;;15.91;92.71;102157.78;10472147;28;20021;-59
2021/07/09 02:54:39;;;;;;;0.10;0.10;;;;;;;15.82;92.35;102149.72;10466732;28;20079;-61
2021/07/09 02:59:39;;;;;;;0.10;0.10;;;;;;;15.71;92.23;102150.00;10476341;28;20474;-60
2021/07/09 03:04:40;;;;;;;0.10;0.10;;;;;;;15.61;92.28;102136.66;10479535;28;20027;-62
2021/07/09 03:09:40;;;;;;;0.10;0.10;;;;;;;15.56;92.86;102133.63;10477878;28;20711;-61
2021/07/09 03:14:41;;;;;;;0.10;0.10;;;;;;;15.57;92.74;102129.09;10479147;28;20025;-62
2021/07/09 03:19:41;;;;;;;0.10;0.10;;;;;;;15.61;92.83;102133.13;10465517;28;20024;-61
2021/07/09 03:24:41;;;;;;;0.10;0.10;;;;;;;15.61;92.97;102125.06;10476759;28;20020;-61
2021/07/09 03:29:42;;;;;;;0.10;0.10;;;;;;;15.63;93.25;102123.06;10473244;28;20031;-61
2021/07/09 03:34:42;;;;;;;0.10;0.10;;;;;;;15.68;93.50;102115.41;10467615;28;20024;-62
2021/07/09 03:39:42;;;;;;;0.10;0.10;;;;;;;15.75;93.06;102119.13;10479849;28;20021;-61
2021/07/09 03:44:43;;;;;;;0.10;0.10;;;;;;;15.75;92.50;102120.97;10458400;28;20027;-60
2021/07/09 03:49:43;;;;;;;0.10;0.10;;;;;;;15.72;92.61;102127.50;10463209;28;20036;-61
2021/07/09 03:54:44;;;;;;;0.10;0.10;;;;;;;15.77;92.48;102127.03;10468477;28;20047;-61
2021/07/09 03:59:44;;;;;;;0.10;0.10;;;;;;;15.84;92.60;102128.88;10460289;28;20056;-62
2021/07/09 04:04:44;;;;;;;0.10;0.10;;;;;;;15.96;92.46;102123.22;10485135;28;20036;-60
2021/07/09 04:09:45;;;;;;;0.10;0.10;;;;;;;16.06;91.96;102116.72;10479004;28;20032;-61
2021/07/09 04:14:45;;;;;;;0.00;0.00;;;;;;;16.17;91.77;102099.41;10467502;28;20028;-62
2021/07/09 04:19:45;;;;;;;0.10;0.10;;;;;;;16.28;91.27;102100.97;10471619;28;20029;-61
2021/07/09 04:24:46;;;;;;;0.10;0.10;;;;;;;16.38;90.99;102096.28;10479156;28;20021;-60
2021/07/09 04:29:46;;;;;;;0.10;0.10;;;;;;;16.49;90.64;102089.72;10478730;28;20705;-62
2021/07/09 04:34:47;;;;;;;0.10;0.10;;;;;;;16.62;90.11;102078.47;10478246;28;20403;-60
2021/07/09 04:39:47;;;;;;;0.10;0.10;;;;;;;16.81;90.00;102086.22;10489831;28;20029;-61
2021/07/09 04:44:47;;;;;;;0.10;0.10;;;;;;;17.04;89.90;102077.44;10466659;28;20392;-62
2021/07/09 04:49:48;;;;;;;0.10;0.10;;;;;;;17.27;89.67;102085.63;10463243;28;20043;-60
2021/07/09 04:54:48;;;;;;;0.10;0.10;;;;;;;17.42;88.08;102083.88;10491414;28;20028;-61
2021/07/09 04:59:49;;;;;;;0.10;0.10;;;;;;;17.58;86.75;102085.69;10474694;28;20028;-60
2021/07/09 05:04:49;;;;;;;0.10;0.10;;;;;;;17.88;87.91;102092.16;10480095;28;20031;-62
2021/07/09 05:09:49;;;;;;;0.10;0.10;;;;;;;18.21;86.99;102095.50;10485342;28;20043;-62
2021/07/09 05:14:50;;;;;;;0.00;0.00;;;;;;;18.43;85.75;102095.69;10478692;28;20028;-62
2021/07/09 05:19:53;;;;;;;0.00;0.00;;;;;;;18.55;84.59;102096.94;10466643;28;20033;-61
2021/07/09 05:24:55;;;;;;;0.10;0.10;;;;;;;18.57;83.65;102094.91;10496304;28;20021;-63
2021/07/09 05:29:56;;;;;;;0.10;0.10;;;;;;;18.75;83.03;102105.41;10474916;28;20088;-62
2021/07/09 05:34:56;;;;;;;0.10;0.10;;;;;;;19.13;83.62;102102.69;10471950;28;20103;-62
2021/07/09 05:39:57;;;;;;;0.10;0.10;;;;;;;19.78;80.26;102093.84;10474841;28;20032;-62
2021/07/09 05:44:57;;;;;;;0.00;0.00;;;;;;;20.05;80.39;102072.50;10472721;28;20129;-62
2021/07/09 05:49:58;;;;;;;0.07;0.07;;;;;;;19.94;81.03;102076.53;10477756;28;20160;-62
2021/07/09 05:54:58;;;;;;;0.10;0.10;;;;;;;19.69;81.83;102076.03;10465450;28;20280;-62
2021/07/09 05:59:58;;;;;;;0.10;0.10;;;;;;;19.55;82.49;102082.28;10470454;28;20052;-62
2021/07/09 06:04:58;;;;;;;0.00;0.00;;;;;;;19.57;83.10;102075.66;10472625;28;20024;-62
2021/07/09 06:09:59;;;;;;;0.10;0.10;;;;;;;19.68;81.65;102077.06;10472690;22;20159;-68
2021/07/09 06:14:59;;;;;;;0.00;0.00;;;;;;;19.81;80.67;102074.53;10398646;28;20021;-67
2021/07/09 06:20:04;;;;;;;0.10;0.10;;;;;;;19.81;79.98;102077.25;10389528;28;20025;-65
2021/07/09 06:25:05;;;;;;;0.10;0.10;;;;;;;19.83;80.58;102077.03;10390330;28;20054;-66
2021/07/09 06:30:06;;;;;;;0.10;0.10;;;;;;;19.92;81.29;102081.31;10383858;28;20064;-67
2021/07/09 06:35:09;;;;;;;0.10;0.10;;;;;;;20.04;80.24;102076.22;10396315;28;20021;-66
2021/07/09 06:40:10;;;;;;;0.10;0.10;;;;;;;20.13;80.95;102073.22;10407444;28;20029;-66
2021/07/09 06:45:10;;;;;;;0.10;0.10;;;;;;;20.28;80.39;102066.94;10405038;28;20392;-67
2021/07/09 06:50:13;;;;;;;0.10;0.10;;;;;;;20.47;78.22;102070.84;10402083;28;20033;-67
2021/07/09 06:55:14;;;;;;;0.10;0.10;;;;;;;20.56;77.13;102064.28;10390871;28;20052;-66
2021/07/09 07:00:17;;;;;;;0.10;0.10;;;;;;;20.49;76.96;102068.78;10391960;28;20307;-66
2021/07/09 07:05:18;;;;;;;0.10;0.10;;;;;;;20.67;76.93;102073.75;10376891;28;20033;-68
2021/07/09 07:10:18;;;;;;;0.10;0.10;;;;;;;20.84;76.25;102080.56;10366281;28;20404;-67
2021/07/09 07:15:18;;;;;;;0.10;0.10;;;;;;;20.79;75.60;102083.00;10367746;28;20026;-66
2021/07/09 07:20:18;;;;;;;0.10;0.10;;;;;;;20.67;76.28;102071.88;10369910;28;20053;-66
2021/07/09 07:25:19;;;;;;;0.10;0.10;;;;;;;20.86;75.52;102070.38;10368857;28;20028;-65
2021/07/09 07:30:19;;;;;;;0.10;0.10;;;;;;;20.93;74.71;102075.81;10369267;28;20088;-66
2021/07/09 07:35:20;;;;;;;0.00;0.00;;;;;;;21.48;73.90;102085.78;10369743;28;20034;-63
2021/07/09 07:40:21;;;;;;;0.10;0.10;;;;;;;21.71;71.74;102084.63;10358869;28;20030;-64
2021/07/09 07:45:21;;;;;;;0.10;0.10;;;;;;;21.64;70.66;102078.31;10352726;28;20014;-65
2021/07/09 07:50:21;;;;;;;0.10;0.10;;;;;;;21.59;70.92;102084.38;10352802;28;20029;-66
2021/07/09 07:55:22;;;;;;;0.10;0.10;;;;;;;21.39;71.18;102083.44;10352890;28;20292;-65
2021/07/09 08:00:22;;;;;;;0.10;0.10;;;;;;;21.23;72.73;102077.28;10353230;28;20038;-65
2021/07/09 08:05:25;;;;;;;0.10;0.10;;;;;;;21.62;72.82;102078.53;10353114;28;20228;-64
2021/07/09 08:10:26;;;;;;;;;;;;;;;21.76;70.46;102076.72;10353417;28;20045;-65
2021/07/09 08:15:26;;;;;;;0.10;0.10;;;;;;;21.72;70.03;102074.63;10353310;28;20426;-64
2021/07/09 08:20:28;;;;;;;0.10;0.10;;;;;;;21.60;70.03;102075.19;10352264;28;20029;-65
2021/07/09 08:25:28;;;;;;;0.10;0.10;;;;;;;21.52;70.83;102079.94;10368463;28;20029;-61
2021/07/09 08:30:28;;;;;;;0.10;0.10;;;;;;;21.66;70.37;102073.53;10369031;28;20423;-64
2021/07/09 08:35:29;;;;;;;0.10;0.10;;;;;;;21.77;71.07;102075.69;10368837;28;20033;-63
2021/07/09 08:40:29;;;;;;;0.03;0.03;;;;;;;21.84;69.98;102072.97;10367684;28;20160;-63
2021/07/09 08:45:29;;;;;;;0.10;0.10;;;;;;;21.84;68.56;102073.81;10369248;28;20079;-62
2021/07/09 08:50:30;;;;;;;0.10;0.10;;;;;;;21.99;67.33;102078.25;10369175;28;20041;-61
2021/07/09 08:55:30;;;;;;;0.00;0.00;;;;;;;22.29;68.91;102074.16;10368883;28;20049;-62
2021/07/09 09:00:34;;;;;;;0.10;0.10;;;;;;;22.19;66.96;102072.91;10407533;28;20025;-64
2021/07/09 09:05:34;;;;;;;0.10;0.10;;;;;;;22.04;69.72;102073.03;10416985;28;20542;-63
2021/07/09 09:10:37;;;;;;;0.10;0.10;;;;;;;22.00;68.99;102069.09;10399469;28;20026;-61
2021/07/09 09:15:39;;;;;;;0.10;0.10;;;;;;;22.25;68.43;102064.78;10375483;28;20048;-61
2021/07/09 09:20:39;;;;;;;0.10;0.10;;;;;;;22.38;67.10;102059.34;10375221;28;20073;-63
2021/07/09 09:25:39;;;;;;;0.10;0.10;;;;;;;22.31;68.05;102057.66;10375413;28;20497;-62
2021/07/09 09:30:42;;;;;;;0.00;0.00;;;;;;;22.53;67.16;102052.88;10375441;28;20499;-62
2021/07/09 09:35:48;;;;;;;0.00;0.00;;;;;;;22.86;65.81;102052.03;10370482;28;20281;-64
2021/07/09 09:40:50;;;;;;;0.00;0.00;;;;;;;23.14;64.32;102046.38;10332851;28;20466;-63
2021/07/09 09:46:09;;;;;;;0.10;0.10;;;;;;;23.53;64.53;102044.53;10368595;28;20030;-63
2021/07/09 09:51:36;;;;;;;0.10;0.10;;;;;;;24.11;63.66;102052.63;10372580;28;20026;-61
2021/07/09 09:56:46;;;;;;;0.10;0.10;;;;;;;24.79;62.21;102041.84;10371674;28;20033;-62
2021/07/09 10:02:02;;;;;;;0.10;0.10;;;;;;;24.43;59.50;102041.75;10372473;28;20025;-62
2021/07/09 10:07:02;;;;;;;0.10;0.10;;;;;;;24.13;61.73;102037.75;10371906;28;20028;-63
2021/07/09 10:12:04;;;;;;;0.10;0.10;;;;;;;23.89;61.47;102039.38;10371405;28;20034;-63
2021/07/09 10:17:05;;;;;;;0.10;0.10;;;;;;;23.71;64.53;102033.84;10369360;28;20053;-63
2021/07/09 10:22:07;;;;;;;0.10;0.10;;;;;;;23.41;62.49;102037.06;10364614;28;20025;-63
2021/07/09 10:27:08;;;;;;;0.10;0.10;;;;;;;23.25;63.07;102032.13;10364831;28;20045;-64
2021/07/09 10:32:08;;;;;;;0.10;0.10;;;;;;;23.39;62.90;102024.75;10365894;28;20109;-61
2021/07/09 10:37:23;;;;;;;0.10;0.10;;;;;;;23.62;60.95;102022.34;10371224;28;20109;-62
2021/07/09 10:42:30;;;;;;;0.10;0.10;;;;;;;23.75;61.18;102010.56;10370919;28;20042;-63
2021/07/09 10:47:45;;;;;;;0.00;0.00;;;;;;;23.82;60.68;102015.97;10371088;28;20026;-61
2021/07/09 10:52:59;;;;;;;0.10;0.10;;;;;;;23.87;63.02;102021.59;10370591;28;20480;-63
2021/07/09 10:58:19;;;;;;;0.10;0.10;;;;;;;23.61;60.32;102017.09;10371050;28;20021;-61
2021/07/09 11:03:44;;;;;;;0.00;0.00;;;;;;;23.49;63.78;102016.97;10387072;28;20235;-62
2021/07/09 11:08:53;;;;;;;0.10;0.10;;;;;;;23.44;62.72;102020.31;10364469;28;20069;-62
2021/07/09 11:13:58;;;;;;;0.10;0.10;;;;;;;23.05;63.46;102011.25;10388237;28;20037;-61
2021/07/09 11:19:04;;;;;;;0.00;0.00;;;;;;;22.90;67.35;102002.50;10376356;28;20021;-64
2021/07/09 11:24:10;;;;;;;0.10;0.10;;;;;;;22.81;68.92;102014.66;10367535;28;20049;-63
2021/07/09 11:29:32;;;;;;;0.10;0.10;;;;;;;22.69;69.49;102008.16;10368150;28;20049;-61
2021/07/09 11:34:36;;;;;;;0.00;0.00;;;;;;;22.47;69.79;102013.00;10385057;28;20029;-62
2021/07/09 11:39:40;;;;;;;0.10;0.10;;;;;;;22.20;70.50;102013.00;10408764;28;20075;-62
2021/07/09 11:45:01;;;;;;;0.10;0.10;;;;;;;21.88;71.45;102015.41;10408093;28;20021;-63
2021/07/09 11:50:12;;;;;;;0.10;0.10;;;;;;;20.84;77.26;102037.22;10408449;28;20145;-65
2021/07/09 11:55:15;;;;;;;0.10;0.10;;;;;;;20.20;72.50;102023.75;10407666;28;20021;-66
2021/07/09 12:00:17;;;;;;;;;;;;;;;20.04;77.16;102016.72;10392480;28;20022;-67
2021/07/09 12:05:20;;;;;;;0.10;0.10;;;;;;;20.01;78.66;102006.28;10390199;28;19909;-66
2021/07/09 12:10:22;;;;;;;0.10;0.10;;;;;;;19.94;83.02;101997.28;10392351;23;20702;-67
2021/07/09 12:15:30;;;;;;;0.10;0.10;;;;;;;20.07;84.20;102010.94;10471091;28;20036;-67
2021/07/09 12:20:33;;;;;;;0.10;0.10;;;;;;;20.22;83.84;102019.84;10488018;28;20259;-67
2021/07/09 12:25:35;;;;;;;;;;;;;;;20.38;82.44;102018.72;10465295;28;20545;-66
2021/07/09 12:30:38;;;;;;;0.00;0.00;;;;;;;20.52;81.14;102011.56;10450045;28;20302;-66
2021/07/09 12:35:38;;;;;;;0.10;0.10;;;;;;;20.65;79.97;102003.53;10452465;28;20028;-66
2021/07/09 12:40:42;;;;;;;0.10;0.10;;;;;;;20.76;81.41;102002.16;10493686;28;20735;-66
2021/07/09 12:45:52;;;;;;;0.10;0.10;;;;;;;20.84;83.32;101996.59;10471445;28;20017;-66
2021/07/09 12:50:52;;;;;;;0.00;0.00;;;;;;;20.88;82.60;101988.91;10485321;28;20031;-66
2021/07/09 12:55:53;;;;;;;0.00;0.00;;;;;;;20.82;82.95;101984.28;10472311;28;20037;-66
2021/07/09 13:00:56;;;;;;;0.00;0.00;;;;;;;20.64;82.54;101980.22;10465768;28;20035;-66
2021/07/09 13:06:04;;;;;;;0.00;0.00;;;;;;;20.41;82.95;101985.84;10494949;28;20112;-66
2021/07/09 13:11:18;;;;;;;0.10;0.10;;;;;;;20.20;83.45;101997.53;10478622;28;20050;-66
2021/07/09 13:16:22;;;;;;;0.00;0.00;;;;;;;20.04;84.25;101990.53;10469690;28;20475;-66
2021/07/09 13:21:27;;;;;;;0.10;0.10;;;;;;;19.88;84.86;101994.31;10472344;28;20024;-67
2021/07/09 13:26:49;;;;;;;0.00;0.00;;;;;;;19.78;85.81;102006.47;10477431;28;20510;-67
2021/07/09 13:31:59;;;;;;;0.10;0.10;;;;;;;19.63;85.56;102009.19;10475352;28;20391;-67
2021/07/09 13:36:59;;;;;;;0.10;0.10;;;;;;;19.51;87.42;102000.75;10484658;28;20031;-66
2021/07/09 13:42:00;;;;;;;0.10;0.10;;;;;;;19.49;86.73;102000.13;10461096;28;20380;-67
2021/07/09 13:47:00;;;;;;;0.03;0.03;;;;;;;19.46;86.75;101997.78;10460450;28;20273;-67
2021/07/09 13:52:01;;;;;;;0.10;0.10;;;;;;;19.48;86.03;102000.28;10462595;28;20079;-66
2021/07/09 13:57:02;;;;;;;0.10;0.10;;;;;;;19.48;85.57;102005.69;10470235;28;20255;-67
2021/07/09 14:02:02;;;;;;;0.00;0.00;;;;;;;19.48;85.57;101994.88;10468216;28;20103;-66
2021/07/09 14:07:05;;;;;;;0.10;0.10;;;;;;;19.47;85.98;101985.94;10471059;28;20024;-66
2021/07/09 14:12:08;;;;;;;0.10;0.10;;;;;;;19.47;85.13;101993.22;10478126;28;20031;-66
2021/07/09 14:17:09;;;;;;;0.10;0.10;;;;;;;19.38;84.81;101990.63;10494536;28;20024;-66
2021/07/09 14:22:09;;;;;;;0.10;0.10;;;;;;;19.35;85.69;101977.50;10494107;28;20016;-66
2021/07/09 14:27:09;;;;;;;0.00;0.00;;;;;;;19.31;84.90;101975.34;10470987;28;20031;-65
2021/07/09 14:32:10;;;;;;;0.10;0.10;;;;;;;19.14;84.85;101980.09;10452255;28;20025;-65
2021/07/09 14:37:10;;;;;;;0.00;0.00;;;;;;;19.04;85.39;101984.97;10452420;28;20025;-65
2021/07/09 14:42:11;;;;;;;0.10;0.10;;;;;;;18.95;85.82;101982.38;10458566;28;20044;-65
2021/07/09 14:47:11;;;;;;;0.00;0.00;;;;;;;18.84;86.33;101977.44;10493517;28;20016;-65
2021/07/09 14:52:11;;;;;;;0.00;0.00;;;;;;;18.65;85.99;101980.66;10492728;28;20012;-65
2021/07/09 14:57:12;;;;;;;0.00;0.00;;;;;;;18.48;86.57;101991.59;10492326;28;20020;-65
2021/07/09 15:02:12;;;;;;;0.10;0.10;;;;;;;18.33;87.02;101996.97;10491932;28;20412;-65
2021/07/09 15:07:12;;;;;;;0.00;0.00;;;;;;;18.16;87.58;101992.72;10492311;28;20266;-65
2021/07/09 15:12:13;;;;;;;0.00;0.00;;;;;;;18.08;88.50;101993.63;10484633;28;20091;-65
2021/07/09 15:17:13;;;;;;;0.10;0.10;;;;;;;17.98;88.78;101992.19;10450845;28;20017;-65
2021/07/09 15:22:14;;;;;;;0.10;0.10;;;;;;;18.01;89.03;101991.84;10450474;28;20270;-66
2021/07/09 15:27:14;;;;;;;0.10;0.10;;;;;;;18.09;89.72;101995.31;10450432;28;20025;-65
2021/07/09 15:32:14;;;;;;;0.10;0.10;;;;;;;18.13;89.61;101997.66;10473613;28;20032;-65
2021/07/09 15:37:15;;;;;;;0.10;0.10;;;;;;;18.06;87.99;101987.59;10491840;28;20387;-66
2021/07/09 15:42:16;;;;;;;0.10;0.10;;;;;;;17.98;87.62;101990.34;10472870;28;20063;-65
2021/07/09 15:47:16;;;;;;;0.10;0.10;;;;;;;17.90;87.68;101984.16;10457168;28;20095;-65
2021/07/09 15:52:17;;;;;;;0.10;0.10;;;;;;;17.85;87.90;101987.38;10449353;28;20035;-65
2021/07/09 15:57:17;;;;;;;0.10;0.10;;;;;;;17.86;89.07;101981.00;10449935;28;20382;-65
2021/07/09 16:02:17;;;;;;;0.10;0.10;;;;;;;17.88;89.49;101978.94;10449250;28;20021;-65
2021/07/09 16:07:18;;;;;;;0.10;0.10;;;;;;;17.96;89.42;101969.97;10452018;28;20028;-65
2021/07/09 16:12:18;;;;;;;0.10;0.10;;;;;;;17.98;89.29;101966.06;10456443;28;20041;-65
2021/07/09 16:17:19;;;;;;;0.10;0.10;;;;;;;17.97;89.07;101969.78;10460549;28;20024;-65
2021/07/09 16:22:19;;;;;;;0.10;0.10;;;;;;;17.96;89.27;101961.88;10460275;28;20019;-65
2021/07/09 16:27:19;;;;;;;0.08;0.08;;;;;;;17.92;89.14;101960.53;10459813;28;20029;-65
2021/07/09 16:32:20;;;;;;;0.10;0.10;;;;;;;17.91;89.17;101965.09;10459068;28;20480;-65
2021/07/09 16:37:21;;;;;;;0.10;0.10;;;;;;;17.94;89.04;101966.59;10459612;28;20029;-65
2021/07/09 16:42:21;;;;;;;0.10;0.10;;;;;;;17.91;88.32;101959.72;10458812;28;20094;-64
2021/07/09 16:47:22;;;;;;;0.10;0.10;;;;;;;17.86;88.71;101962.97;10458986;28;20086;-65
2021/07/09 16:52:23;;;;;;;0.10;0.10;;;;;;;17.83;88.34;101954.38;10458195;28;20033;-65
2021/07/09 16:57:23;;;;;;;0.10;0.10;;;;;;;17.82;89.23;101960.78;10441002;28;20095;-65
2021/07/09 17:02:24;;;;;;;0.10;0.10;;;;;;;17.81;89.14;101964.53;10458104;28;20505;-65
2021/07/09 17:07:24;;;;;;;0.10;0.10;;;;;;;17.79;88.82;101970.06;10458214;28;20025;-65
2021/07/09 17:12:24;;;;;;;0.10;0.10;;;;;;;17.78;89.07;101970.28;10457439;28;20059;-65
2021/07/09 17:17:25;;;;;;;0.10;0.10;;;;;;;17.74;88.63;101964.34;10457369;28;20278;-64
2021/07/09 17:22:25;;;;;;;0.00;0.00;;;;;;;17.71;88.50;101977.34;10457223;28;20028;-64
2021/07/09 17:27:25;;;;;;;0.10;0.10;;;;;;;17.64;88.74;101978.06;10457661;28;20407;-64
2021/07/09 17:32:26;;;;;;;0.10;0.10;;;;;;;17.57;88.04;101976.25;10456669;28;20284;-64
2021/07/09 17:37:26;;;;;;;0.10;0.10;;;;;;;17.50;87.91;101986.06;10457158;28;20657;-64
2021/07/09 17:42:26;;;;;;;0.10;0.10;;;;;;;17.42;88.52;101986.94;10456182;28;20017;-64
2021/07/09 17:47:26;;;;;;;0.10;0.10;;;;;;;17.38;88.33;101988.31;10456567;28;20035;-64
2021/07/09 17:52:27;;;;;;;0.10;0.10;;;;;;;17.33;88.17;101986.13;10455562;28;20021;-64
2021/07/09 17:57:27;;;;;;;0.10;0.10;;;;;;;17.28;88.48;101988.53;10456192;28;20024;-64
2021/07/09 18:02:30;;;;;;;0.10;0.10;;;;;;;17.26;88.80;101995.09;10455625;28;20025;-64
2021/07/09 18:07:31;;;;;;;0.10;0.10;;;;;;;17.22;88.67;101991.06;10456480;28;20024;-64
2021/07/09 18:12:31;;;;;;;0.10;0.10;;;;;;;17.18;88.67;101994.09;10455253;28;20033;-64
2021/07/09 18:17:35;;;;;;;0.10;0.10;;;;;;;17.16;88.23;101996.16;10455744;28;20025;-64
2021/07/09 18:22:36;;;;;;;0.10;0.10;;;;;;;17.13;88.18;101991.13;10454902;28;20268;-64
2021/07/09 18:27:37;;;;;;;0.10;0.10;;;;;;;17.11;87.67;101984.22;10437256;28;20392;-61
2021/07/09 18:32:37;;;;;;;0.10;0.10;;;;;;;17.10;88.32;101983.34;10453698;28;20017;-63
2021/07/09 18:37:37;;;;;;;0.10;0.10;;;;;;;17.11;88.52;101976.16;10454796;28;20096;-63
2021/07/09 18:42:38;;;;;;;0.10;0.10;;;;;;;17.07;88.39;101972.94;10454189;28;20109;-63
2021/07/09 18:47:39;;;;;;;0.10;0.10;;;;;;;17.04;87.59;101964.38;10454207;28;20814;-63
2021/07/09 18:52:39;;;;;;;0.10;0.10;;;;;;;17.00;88.03;101966.59;10453750;28;20259;-63
2021/07/09 18:57:40;;;;;;;0.10;0.10;;;;;;;16.97;88.04;101965.09;10453966;28;20032;-63
2021/07/09 19:02:44;;;;;;;0.10;0.10;;;;;;;16.94;87.75;101951.13;10453404;28;20041;-63
2021/07/09 19:07:46;;;;;;;0.10;0.10;;;;;;;16.92;88.76;101961.22;10419257;28;20032;-64
2021/07/09 19:12:48;;;;;;;0.10;0.10;;;;;;;16.88;88.91;101957.22;10452746;28;20052;-64
2021/07/09 19:17:51;;;;;;;0.10;0.10;;;;;;;16.82;88.85;101957.91;10453311;28;20033;-63
2021/07/09 19:22:52;;;;;;;0.10;0.10;;;;;;;16.74;89.12;101951.50;10452641;28;20075;-63
2021/07/09 19:27:52;;;;;;;0.10;0.10;;;;;;;16.67;89.12;101945.13;10453068;28;20029;-63
2021/07/09 19:32:53;;;;;;;0.05;0.05;;;;;;;16.63;89.28;101948.34;10452176;28;20063;-64
2021/07/09 19:37:54;;;;;;;0.10;0.10;;;;;;;16.58;89.71;101962.31;10434627;28;20021;-63
2021/07/09 19:42:55;;;;;;;0.10;0.10;;;;;;;16.54;89.82;101955.56;10452028;28;20025;-64
2021/07/09 19:47:56;;;;;;;0.10;0.10;;;;;;;16.49;90.05;101953.41;10452377;28;20031;-63
2021/07/09 19:52:56;;;;;;;0.10;0.10;;;;;;;16.44;89.92;101955.78;10451921;28;20029;-63
2021/07/09 19:57:56;;;;;;;0.10;0.10;;;;;;;16.41;90.19;101960.66;10434202;28;20051;-63
2021/07/09 20:02:57;;;;;;;0.10;0.10;;;;;;;16.37;89.93;101957.44;10451695;28;20036;-62
2021/07/09 20:07:58;;;;;;;0.10;0.10;;;;;;;16.34;90.10;101952.41;10451891;28;20480;-63
2021/07/09 20:12:59;;;;;;;0.10;0.10;;;;;;;16.31;89.89;101952.75;10451392;28;20067;-63
2021/07/09 20:17:59;;;;;;;0.10;0.10;;;;;;;16.26;90.13;101955.97;10451872;28;20048;-63
2021/07/09 20:23:00;;;;;;;0.10;0.10;;;;;;;16.23;90.25;101959.00;10451017;28;20021;-62
2021/07/09 20:28:00;;;;;;;0.10;0.10;;;;;;;16.21;90.24;101958.31;10451081;28;20033;-63
2021/07/09 20:33:02;;;;;;;0.10;0.10;;;;;;;16.20;90.31;101955.78;10450778;28;20033;-62
2021/07/09 20:38:03;;;;;;;0.10;0.10;;;;;;;16.19;90.16;101954.09;10451283;28;20036;-62
2021/07/09 20:43:03;;;;;;;0.10;0.10;;;;;;;16.17;89.96;101956.13;10450544;28;20017;-62
2021/07/09 20:48:05;;;;;;;0.10;0.10;;;;;;;16.15;90.15;101956.31;10451028;28;20025;-62
2021/07/09 20:53:05;;;;;;;0.10;0.10;;;;;;;16.12;90.32;101951.25;10452896;28;20060;-62
2021/07/09 20:58:05;;;;;;;0.10;0.10;;;;;;;16.10;90.32;101947.91;10458754;28;20049;-62
2021/07/09 21:03:06;;;;;;;0.10;0.10;;;;;;;16.07;90.13;101951.75;10458013;28;20048;-62
2021/07/09 21:08:06;;;;;;;0.10;0.10;;;;;;;16.03;90.16;101941.53;10458324;28;20025;-62
2021/07/09 21:13:07;;;;;;;0.10;0.10;;;;;;;16.01;90.42;101939.00;10457473;28;20064;-62
2021/07/09 21:18:08;;;;;;;0.10;0.10;;;;;;;15.98;90.29;101949.25;10458156;28;20067;-62
2021/07/09 21:23:08;;;;;;;0.10;0.10;;;;;;;15.97;90.55;101948.41;10457208;28;20045;-62
2021/07/09 21:28:09;;;;;;;0.10;0.10;;;;;;;15.95;90.35;101945.03;10458135;28;20021;-62
2021/07/09 21:33:09;;;;;;;0.10;0.10;;;;;;;15.93;90.33;101951.59;10456981;28;20040;-62
2021/07/09 21:38:09;;;;;;;0.10;0.10;;;;;;;15.89;90.50;101952.94;10456629;28;20033;-62
2021/07/09 21:43:13;;;;;;;0.10;0.10;;;;;;;15.86;90.71;101947.91;10456520;28;20032;-62
2021/07/09 21:48:14;;;;;;;0.10;0.10;;;;;;;15.81;90.16;101948.38;10439069;28;20040;-60
2021/07/09 21:53:14;;;;;;;0.10;0.10;;;;;;;15.77;90.15;101941.69;10455951;28;20412;-62
2021/07/09 21:58:14;;;;;;;0.10;0.10;;;;;;;15.73;90.38;101934.94;10455989;28;20039;-62
2021/07/09 22:03:15;;;;;;;0.00;0.00;;;;;;;15.69;89.99;101936.28;10454924;28;20123;-62
2021/07/09 22:08:16;;;;;;;0.10;0.10;;;;;;;15.65;90.32;101941.13;10471006;28;20610;-61
2021/07/09 22:13:16;;;;;;;0.10;0.10;;;;;;;15.60;90.05;101933.56;10437608;28;20021;-62
2021/07/09 22:18:17;;;;;;;0.10;0.10;;;;;;;15.53;90.26;101924.50;10435413;28;20017;-62
2021/07/09 22:23:17;;;;;;;0.10;0.10;;;;;;;15.49;90.27;101933.03;10464426;28;20263;-62
2021/07/09 22:28:17;;;;;;;0.10;0.10;;;;;;;15.44;90.36;101929.97;10473540;28;20017;-62
2021/07/09 22:33:18;;;;;;;0.10;0.10;;;;;;;15.38;90.15;101926.94;10474716;28;20089;-62
2021/07/09 22:38:18;;;;;;;0.10;0.10;;;;;;;15.35;90.29;101929.13;10473014;28;20024;-60
2021/07/09 22:43:18;;;;;;;0.03;0.03;;;;;;;15.30;90.48;101913.53;10467979;28;20021;-62
2021/07/09 22:48:19;;;;;;;0.13;0.13;;;;;;;15.26;90.48;101914.84;10472676;28;20012;-61
2021/07/09 22:53:19;;;;;;;0.10;0.10;;;;;;;15.23;90.46;101908.97;10477567;28;20023;-62
2021/07/09 22:58:20;;;;;;;0.10;0.10;;;;;;;15.28;90.94;101914.69;10459763;28;20028;-61
2021/07/09 23:03:21;;;;;;;0.00;0.00;;;;;;;15.26;90.46;101916.69;10462708;28;20021;-62
2021/07/09 23:08:21;;;;;;;0.10;0.10;;;;;;;15.22;90.30;101900.09;10472606;28;20460;-62